createdAt,value
2022-12-22T00:00:41.627Z,42.92
2022-12-22T00:03:31.863Z,40.55
2022-12-22T00:06:18.658Z,39.63
2022-12-22T00:09:05.868Z,42.30
2022-12-22T00:11:51.665Z,43.67
2022-12-22T00:14:37.156Z,41.75
2022-12-22T00:17:31.697Z,43.22
2022-12-22T00:20:18.796Z,40.33
2022-12-22T00:23:05.970Z,40.60
2022-12-22T00:25:51.360Z,44.63
2022-12-22T00:28:36.719Z,41.63
2022-12-22T00:31:22.178Z,43.20
2022-12-22T00:34:07.659Z,39.80
2022-12-22T00:36:53.024Z,44.75
2022-12-22T00:39:39.843Z,51.83
2022-12-22T00:42:25.297Z,46.45
2022-12-22T00:45:10.833Z,46.53
2022-12-22T00:47:56.509Z,44.63
2022-12-22T00:50:46.707Z,45.53
2022-12-22T00:53:32.050Z,41.38
2022-12-22T00:56:19.212Z,48.17
2022-12-22T00:59:04.433Z,44.25
2022-12-22T01:01:50.373Z,41.85
2022-12-22T01:04:35.879Z,40.15
2022-12-22T01:07:22.727Z,43.38
2022-12-22T01:10:10.320Z,38.53
2022-12-22T01:12:59.034Z,38.17
2022-12-22T01:15:46.732Z,40.30
2022-12-22T01:18:32.212Z,40.95
2022-12-22T01:21:18.161Z,44.25
2022-12-22T01:24:03.901Z,41.63
2022-12-22T01:26:50.008Z,41.60
2022-12-22T01:29:36.722Z,44.40
2022-12-22T01:32:22.791Z,41.53
2022-12-22T01:35:08.134Z,36.38
2022-12-22T01:37:53.443Z,44.38
2022-12-22T01:40:42.063Z,45.20
2022-12-22T01:43:38.331Z,37.67
2022-12-22T01:46:43.615Z,37.45
2022-12-22T01:49:32.909Z,42.33
2022-12-22T01:52:19.437Z,43.42
2022-12-22T01:55:05.729Z,45.50
2022-12-22T01:57:52.062Z,43.72
2022-12-22T02:00:38.461Z,34.55
2022-12-22T02:03:35.376Z,37.72
2022-12-22T02:06:32.890Z,40.97
2022-12-22T02:09:35.295Z,37.85
2022-12-22T02:12:29.211Z,34.97
2022-12-22T02:15:22.802Z,39.88
2022-12-22T02:18:18.686Z,40.78
2022-12-22T02:21:11.206Z,36.13
2022-12-22T02:24:26.128Z,37.30
2022-12-22T02:27:15.473Z,34.25
2022-12-22T02:30:08.190Z,39.33
2022-12-22T02:32:57.019Z,41.15
2022-12-22T02:35:43.237Z,38.25
2022-12-22T02:38:38.090Z,37.92
2022-12-22T02:41:33.986Z,40.08
2022-12-22T02:44:37.012Z,31.83
2022-12-22T02:47:26.912Z,35.47
2022-12-22T02:50:15.659Z,35.08
2022-12-22T02:53:03.009Z,35.70
2022-12-22T02:55:49.923Z,37.90
2022-12-22T02:58:36.379Z,33.67
2022-12-22T03:01:24.813Z,31.50
2022-12-22T03:04:10.721Z,38.55
2022-12-22T03:06:56.033Z,35.20
2022-12-22T03:09:41.439Z,36.42
2022-12-22T03:12:26.932Z,36.00
2022-12-22T03:15:12.361Z,38.55
2022-12-22T03:17:58.994Z,35.10
2022-12-22T03:20:44.298Z,34.35
2022-12-22T03:23:29.720Z,34.92
2022-12-22T03:25:57.854Z,50.17
2022-12-22T03:28:28.097Z,37.40
2022-12-22T03:30:58.365Z,34.65
2022-12-22T03:33:28.671Z,35.55
2022-12-22T03:35:57.082Z,38.50
2022-12-22T03:38:25.706Z,35.47
2022-12-22T03:40:53.911Z,36.63
2022-12-22T03:43:39.332Z,35.10
2022-12-22T03:46:25.937Z,33.25
2022-12-22T03:49:13.895Z,32.45
2022-12-22T03:51:44.111Z,36.90
2022-12-22T03:54:13.563Z,36.97
2022-12-22T03:56:41.742Z,37.47
2022-12-22T03:59:10.432Z,50.75
2022-12-22T04:01:40.787Z,44.80
2022-12-22T04:04:10.816Z,39.30
2022-12-22T04:06:39.302Z,32.67
2022-12-22T04:09:07.659Z,33.30
2022-12-22T04:11:53.707Z,33.10
2022-12-22T04:14:21.984Z,33.13
2022-12-22T04:16:50.345Z,30.38
2022-12-22T04:19:19.876Z,31.55
2022-12-22T04:21:47.832Z,33.05
2022-12-22T04:24:15.922Z,34.72
2022-12-22T04:26:43.914Z,34.40
2022-12-22T04:29:11.991Z,32.83
2022-12-22T04:31:40.043Z,32.33
2022-12-22T04:34:08.220Z,32.92
2022-12-22T04:36:37.685Z,32.65
2022-12-22T04:39:05.627Z,34.08
2022-12-22T04:41:33.571Z,33.85
2022-12-22T04:44:01.518Z,31.15
2022-12-22T04:46:30.177Z,32.05
2022-12-22T04:49:00.483Z,31.65
2022-12-22T04:51:28.911Z,32.70
2022-12-22T04:53:58.321Z,38.80
2022-12-22T04:56:26.274Z,34.15
2022-12-22T04:58:54.239Z,33.92
2022-12-22T05:01:22.517Z,32.53
2022-12-22T05:03:50.667Z,35.13
2022-12-22T05:06:18.891Z,31.85
2022-12-22T05:08:46.877Z,35.67
2022-12-22T05:11:16.167Z,34.50
2022-12-22T05:13:44.239Z,33.33
2022-12-22T05:16:15.271Z,30.45
2022-12-22T05:18:44.841Z,36.17
2022-12-22T05:21:41.963Z,33.65
2022-12-22T05:24:10.073Z,34.75
2022-12-22T05:26:39.321Z,32.35
2022-12-22T05:29:07.682Z,33.33
2022-12-22T05:31:39.464Z,31.75
2022-12-22T05:34:09.847Z,33.13
2022-12-22T05:36:37.818Z,30.05
2022-12-22T05:39:05.806Z,34.15
2022-12-22T05:41:33.732Z,36.58
2022-12-22T05:44:03.923Z,32.05
2022-12-22T05:46:31.977Z,31.77
2022-12-22T05:49:00.094Z,37.63
2022-12-22T05:51:28.030Z,29.13
2022-12-22T05:53:56.047Z,33.05
2022-12-22T05:56:23.967Z,30.98
2022-12-22T05:58:51.966Z,28.45
2022-12-22T06:01:21.380Z,32.10
2022-12-22T06:03:52.186Z,31.60
2022-12-22T06:06:22.943Z,27.85
2022-12-22T06:08:50.919Z,28.30
2022-12-22T06:11:19.292Z,34.28
2022-12-22T06:13:47.275Z,26.98
2022-12-22T06:16:15.250Z,30.63
2022-12-22T06:18:44.549Z,28.63
2022-12-22T06:21:12.494Z,33.95
2022-12-22T06:23:40.427Z,30.98
2022-12-22T06:26:08.360Z,29.73
2022-12-22T06:28:36.303Z,28.80
2022-12-22T06:31:04.413Z,29.35
2022-12-22T06:33:32.412Z,30.38
2022-12-22T06:36:05.670Z,28.83
2022-12-22T06:38:33.770Z,30.42
2022-12-22T06:41:01.755Z,28.67
2022-12-22T06:43:28.777Z,27.27
2022-12-22T06:45:56.982Z,31.15
2022-12-22T06:48:24.934Z,29.42
2022-12-22T06:50:53.094Z,28.02
2022-12-22T06:53:22.438Z,32.42
2022-12-22T06:55:50.582Z,30.13
2022-12-22T06:58:18.505Z,31.63
2022-12-22T07:00:48.621Z,28.33
2022-12-22T07:03:17.420Z,29.70
2022-12-22T07:05:45.763Z,25.02
2022-12-22T07:08:13.826Z,28.90
2022-12-22T07:11:01.233Z,25.40
2022-12-22T07:13:31.771Z,24.85
2022-12-22T07:16:01.637Z,27.00
2022-12-22T07:18:31.165Z,26.30
2022-12-22T07:21:06.111Z,25.42
2022-12-22T07:23:34.576Z,28.05
2022-12-22T07:26:05.042Z,24.95
2022-12-22T07:28:34.261Z,23.88
2022-12-22T07:31:02.604Z,23.80
2022-12-22T07:33:30.697Z,25.75
2022-12-22T07:36:03.995Z,22.38
2022-12-22T07:38:37.552Z,22.27
2022-12-22T07:41:28.949Z,25.70
2022-12-22T07:43:58.246Z,26.17
2022-12-22T07:46:28.329Z,21.40
2022-12-22T07:49:14.516Z,21.23
2022-12-22T07:51:43.471Z,21.65
2022-12-22T07:54:12.884Z,23.05
2022-12-22T07:56:42.819Z,23.42
2022-12-22T07:59:11.452Z,24.35
2022-12-22T08:01:40.322Z,24.23
2022-12-22T08:04:08.933Z,24.63
2022-12-22T08:06:37.197Z,24.73
2022-12-22T08:09:06.824Z,22.67
2022-12-22T08:11:35.268Z,23.30
2022-12-22T08:14:04.636Z,27.95
2022-12-22T08:16:32.762Z,25.85
2022-12-22T08:19:00.775Z,23.10
2022-12-22T08:21:28.733Z,56.88
2022-12-22T08:23:56.852Z,26.67
2022-12-22T08:26:28.653Z,26.58
2022-12-22T08:29:00.660Z,24.45
2022-12-22T08:31:31.561Z,23.35
2022-12-22T08:34:02.382Z,24.02
2022-12-22T08:36:31.485Z,25.88
2022-12-22T08:39:00.497Z,25.05
2022-12-22T08:41:47.913Z,21.25
2022-12-22T08:44:16.139Z,21.13
2022-12-22T08:46:45.458Z,23.98
2022-12-22T08:49:13.737Z,31.13
2022-12-22T08:51:41.912Z,24.02
2022-12-22T08:54:10.579Z,20.75
2022-12-22T08:56:38.801Z,20.63
2022-12-22T08:59:08.097Z,24.40
2022-12-22T09:01:51.681Z,20.75
2022-12-22T09:04:24.305Z,22.23
2022-12-22T09:06:53.632Z,20.23
2022-12-22T09:09:21.954Z,22.83
2022-12-22T09:11:50.381Z,20.55
2022-12-22T09:14:18.831Z,24.80
2022-12-22T09:16:50.334Z,19.05
2022-12-22T09:19:18.822Z,21.90
2022-12-22T09:21:49.287Z,21.50
2022-12-22T09:24:17.681Z,20.23
2022-12-22T09:26:45.636Z,20.88
2022-12-22T09:29:15.392Z,23.98
2022-12-22T09:31:44.348Z,20.83
2022-12-22T09:34:17.689Z,25.07
2022-12-22T09:36:46.718Z,25.98
2022-12-22T09:39:16.959Z,18.40
2022-12-22T09:41:47.376Z,24.23
2022-12-22T09:44:26.578Z,20.33
2022-12-22T09:46:56.674Z,22.53
2022-12-22T09:49:24.841Z,21.47
2022-12-22T09:51:57.081Z,19.23
2022-12-22T09:54:27.364Z,28.43
2022-12-22T09:56:55.618Z,23.00
2022-12-22T09:59:27.259Z,20.37
2022-12-22T10:02:16.694Z,20.90
2022-12-22T10:05:11.450Z,23.67
2022-12-22T10:07:42.381Z,22.37
2022-12-22T10:10:24.746Z,21.27
2022-12-22T10:12:53.048Z,20.00
2022-12-22T10:15:22.199Z,22.33
2022-12-22T10:17:52.306Z,21.33
2022-12-22T10:20:29.743Z,19.50
2022-12-22T10:23:06.975Z,20.80
2022-12-22T10:26:17.362Z,21.57
2022-12-22T10:28:30.430Z,21.33
2022-12-22T10:31:14.398Z,22.53
2022-12-22T10:33:47.198Z,22.70
2022-12-22T10:36:21.127Z,19.83
2022-12-22T10:39:03.920Z,20.00
2022-12-22T10:41:36.951Z,20.67
2022-12-22T10:44:07.817Z,16.23
2022-12-22T10:46:40.011Z,18.27
2022-12-22T10:49:16.089Z,22.17
2022-12-22T10:51:47.524Z,19.90
2022-12-22T10:54:30.970Z,17.00
2022-12-22T10:57:07.759Z,18.07
2022-12-22T10:59:49.478Z,17.63
2022-12-22T11:02:30.588Z,16.03
2022-12-22T11:05:04.370Z,16.17
2022-12-22T11:07:34.781Z,18.17
2022-12-22T11:10:03.702Z,17.30
2022-12-22T11:12:41.602Z,16.13
2022-12-22T11:15:24.186Z,17.40
2022-12-22T11:18:00.127Z,14.13
2022-12-22T11:20:37.014Z,20.83
2022-12-22T11:23:10.630Z,15.47
2022-12-22T11:25:49.618Z,16.40
2022-12-22T11:28:56.749Z,14.50
2022-12-22T11:31:43.907Z,18.10
2022-12-22T11:34:26.924Z,15.60
2022-12-22T11:37:08.569Z,13.00
2022-12-22T11:39:41.431Z,15.87
2022-12-22T11:42:29.201Z,15.90
2022-12-22T11:45:05.987Z,15.97
2022-12-22T11:47:45.953Z,14.87
2022-12-22T11:51:01.293Z,13.87
2022-12-22T11:53:52.319Z,15.40
2022-12-22T11:56:25.191Z,15.57
2022-12-22T11:59:08.838Z,13.30
2022-12-22T12:02:03.908Z,18.43
2022-12-22T12:05:10.320Z,18.30
2022-12-22T12:07:42.260Z,21.03
2022-12-22T12:10:18.908Z,19.90
2022-12-22T12:12:54.055Z,15.50
2022-12-22T12:15:29.760Z,14.30
2022-12-22T12:18:30.128Z,16.03
2022-12-22T12:21:22.602Z,16.70
2022-12-22T12:24:16.144Z,14.33
2022-12-22T12:26:53.080Z,14.07
2022-12-22T12:29:25.067Z,17.30
2022-12-22T12:31:59.814Z,15.43
2022-12-22T12:34:31.003Z,19.03
2022-12-22T12:37:04.418Z,15.40
2022-12-22T12:39:48.454Z,16.87
2022-12-22T12:42:27.598Z,17.90
2022-12-22T12:44:56.272Z,17.77
2022-12-22T12:47:27.386Z,15.37
2022-12-22T12:53:17.581Z,11.40
2022-12-22T12:56:08.359Z,2.23
2022-12-22T12:58:54.245Z,4.63
2022-12-22T13:01:57.110Z,1.30
2022-12-22T13:05:13.949Z,1.37
2022-12-22T13:08:21.951Z,3.07
2022-12-22T13:11:44.729Z,2.50
2022-12-22T13:14:09.867Z,1.53
2022-12-22T13:16:40.696Z,1.60
2022-12-22T13:19:33.158Z,3.03
2022-12-22T13:22:03.923Z,1.20
2022-12-22T13:24:47.067Z,6.00
2022-12-22T13:27:18.826Z,1.60
2022-12-22T13:29:48.632Z,1.30
2022-12-22T13:32:24.581Z,4.27
2022-12-22T13:35:30.324Z,2.50
2022-12-22T13:37:54.041Z,4.23
2022-12-22T13:40:25.001Z,2.70
2022-12-22T13:42:57.071Z,4.50
2022-12-22T13:45:33.534Z,6.10
2022-12-22T13:48:03.400Z,4.90
2022-12-22T13:50:36.862Z,6.03
2022-12-22T13:53:08.415Z,6.03
2022-12-22T13:55:37.319Z,3.10
2022-12-22T13:58:16.558Z,4.07
2022-12-22T14:00:44.719Z,11.93
2022-12-22T14:03:41.756Z,5.27
2022-12-22T14:06:27.381Z,6.10
2022-12-22T14:08:55.815Z,4.50
2022-12-22T14:11:23.871Z,5.07
2022-12-22T14:13:53.401Z,4.73
2022-12-22T14:16:21.633Z,3.70
2022-12-22T14:18:49.761Z,4.57
2022-12-22T14:21:18.219Z,2.97
2022-12-22T14:23:48.837Z,2.30
2022-12-22T14:26:23.545Z,5.03
2022-12-22T14:28:57.080Z,2.30
2022-12-22T14:31:25.373Z,2.93
2022-12-22T14:33:55.818Z,3.27
2022-12-22T14:36:26.088Z,3.03
2022-12-22T14:38:55.651Z,3.20
2022-12-22T14:41:43.035Z,3.77
2022-12-22T14:44:19.240Z,3.33
2022-12-22T14:47:02.875Z,2.60
2022-12-22T14:49:31.115Z,8.03
2022-12-22T14:52:06.926Z,4.63
2022-12-22T14:54:35.672Z,7.47
2022-12-22T14:57:16.254Z,6.10
2022-12-22T15:00:03.693Z,7.90
2022-12-22T15:02:39.192Z,2.67
2022-12-22T15:05:15.840Z,1.80
2022-12-22T15:08:05.355Z,2.37
2022-12-22T15:10:39.432Z,4.83
2022-12-22T15:13:13.038Z,2.00
2022-12-22T15:15:42.436Z,5.17
2022-12-22T15:18:14.720Z,3.67
2022-12-22T15:20:42.888Z,4.80
2022-12-22T15:23:14.739Z,2.90
2022-12-22T15:25:42.880Z,7.83
2022-12-22T15:28:11.339Z,3.77
2022-12-22T15:30:39.579Z,4.13
2022-12-22T15:33:14.347Z,2.97
2022-12-22T15:35:43.564Z,3.50
2022-12-22T15:38:15.288Z,2.93
2022-12-22T15:40:43.675Z,3.00
2022-12-22T15:43:36.617Z,4.50
2022-12-22T15:46:00.571Z,4.67
2022-12-22T15:48:34.437Z,5.77
2022-12-22T15:51:05.343Z,14.50
2022-12-22T15:53:34.639Z,13.70
2022-12-22T15:56:03.052Z,8.67
2022-12-22T15:58:35.566Z,7.33
2022-12-22T16:01:03.952Z,6.03
2022-12-22T16:03:33.493Z,6.70
2022-12-22T16:06:02.190Z,7.73
2022-12-22T16:08:33.225Z,4.30
2022-12-22T16:11:01.412Z,9.00
2022-12-22T16:13:29.682Z,8.77
2022-12-22T16:15:58.739Z,5.73
2022-12-22T16:18:27.173Z,3.10
2022-12-22T16:20:58.631Z,6.20
2022-12-22T16:23:28.242Z,3.10
2022-12-22T16:26:01.764Z,6.07
2022-12-22T16:28:30.944Z,4.20
2022-12-22T16:30:59.937Z,6.40
2022-12-22T16:33:28.133Z,4.03
2022-12-22T16:35:57.566Z,7.43
2022-12-22T16:38:25.630Z,4.23
2022-12-22T16:40:54.771Z,7.63
2022-12-22T16:46:16.038Z,3.73
2022-12-22T16:48:46.776Z,6.53
2022-12-22T16:51:20.512Z,4.27
2022-12-22T16:53:49.256Z,5.20
2022-12-22T16:56:20.376Z,5.13
2022-12-22T16:58:49.341Z,8.10
2022-12-22T17:01:37.686Z,16.73
2022-12-22T17:04:09.021Z,7.77
2022-12-22T17:06:39.028Z,6.20
2022-12-22T17:09:12.294Z,6.10
2022-12-22T17:11:40.408Z,5.93
2022-12-22T17:14:16.264Z,5.97
2022-12-22T17:16:44.286Z,6.90
2022-12-22T17:19:12.603Z,6.87
2022-12-22T17:21:42.172Z,9.10
2022-12-22T17:24:14.791Z,9.13
2022-12-22T17:26:43.561Z,8.13
2022-12-22T17:29:16.877Z,6.53
2022-12-22T17:31:45.048Z,6.40
2022-12-22T17:34:16.461Z,6.57
2022-12-22T17:36:48.312Z,6.00
2022-12-22T17:39:17.906Z,5.60
2022-12-22T17:41:49.050Z,6.10
2022-12-22T17:44:24.164Z,4.90
2022-12-22T17:46:52.241Z,6.70
2022-12-22T17:49:22.319Z,3.90
2022-12-22T17:51:52.616Z,4.90
2022-12-22T17:54:24.902Z,11.93
2022-12-22T17:57:01.320Z,10.00
2022-12-22T17:59:29.873Z,9.93
2022-12-22T18:01:58.024Z,8.73
2022-12-22T18:04:26.303Z,5.47
2022-12-22T18:06:55.976Z,3.27
2022-12-22T18:09:26.262Z,2.90
2022-12-22T18:11:54.829Z,2.90
2022-12-22T18:14:23.827Z,3.80
2022-12-22T18:16:52.176Z,3.30
2022-12-22T18:19:20.446Z,3.13
2022-12-22T18:21:48.601Z,3.67
2022-12-22T18:24:20.333Z,3.60
2022-12-22T18:26:48.812Z,3.30
2022-12-22T18:29:17.149Z,3.40
2022-12-22T18:31:45.574Z,4.60
2022-12-22T18:34:14.069Z,5.50
2022-12-22T18:36:45.317Z,5.97
2022-12-22T18:39:20.161Z,6.78
2022-12-22T18:41:48.338Z,7.83
2022-12-22T18:44:17.733Z,8.60
2022-12-22T18:46:46.112Z,9.23
2022-12-22T18:49:14.763Z,9.63
2022-12-22T18:51:43.738Z,9.67
2022-12-22T18:54:29.346Z,23.10
2022-12-22T18:56:57.279Z,26.43
2022-12-22T18:59:27.918Z,28.57
2022-12-22T19:02:00.090Z,31.20
2022-12-22T19:04:29.329Z,60.57
2022-12-22T19:06:57.283Z,15.70
2022-12-22T19:09:27.000Z,13.67
2022-12-22T19:11:56.765Z,18.23
2022-12-22T19:14:24.721Z,14.23
2022-12-22T19:16:52.816Z,18.60
2022-12-22T19:19:22.379Z,12.40
2022-12-22T19:21:50.491Z,12.30
2022-12-22T19:24:18.522Z,10.87
2022-12-22T19:26:47.821Z,13.73
2022-12-22T19:29:18.159Z,10.40
2022-12-22T19:31:46.329Z,12.57
2022-12-22T19:34:18.853Z,20.33
2022-12-22T19:36:46.929Z,12.50
2022-12-22T19:39:14.843Z,9.30
2022-12-22T19:41:46.041Z,9.23
2022-12-22T19:44:21.383Z,9.47
2022-12-22T19:46:50.259Z,9.13
2022-12-22T19:49:20.049Z,9.70
2022-12-22T19:51:48.422Z,9.87
2022-12-22T19:54:16.663Z,8.60
2022-12-22T19:56:47.221Z,8.60
2022-12-22T19:59:28.463Z,9.60
2022-12-22T20:01:59.874Z,9.70
2022-12-22T20:04:28.017Z,8.97
2022-12-22T20:06:56.010Z,10.13
2022-12-22T20:09:23.979Z,9.97
2022-12-22T20:11:52.008Z,10.40
2022-12-22T20:14:20.531Z,9.60
2022-12-22T20:16:49.892Z,11.50
2022-12-22T20:19:17.912Z,11.93
2022-12-22T20:21:45.925Z,13.95
2022-12-22T20:24:21.067Z,12.30
2022-12-22T20:26:54.185Z,11.27
2022-12-22T20:29:24.263Z,10.68
2022-12-22T20:31:54.066Z,9.48
2022-12-22T20:34:22.155Z,7.90
2022-12-22T20:36:50.101Z,10.33
2022-12-22T20:39:20.292Z,8.60
2022-12-22T20:41:52.845Z,13.70
2022-12-22T20:44:25.321Z,11.75
2022-12-22T20:46:54.739Z,13.38
2022-12-22T20:49:22.627Z,11.95
2022-12-22T20:51:50.583Z,12.23
2022-12-22T20:54:18.545Z,11.17
2022-12-22T20:56:48.727Z,11.38
2022-12-22T20:59:19.119Z,11.73
2022-12-22T21:01:48.171Z,13.75
2022-12-22T21:04:19.227Z,16.95
2022-12-22T21:06:51.381Z,19.60
2022-12-22T21:09:19.506Z,17.90
2022-12-22T21:11:47.462Z,20.27
2022-12-22T21:14:15.887Z,19.83
2022-12-22T21:16:46.166Z,19.08
2022-12-22T21:19:20.108Z,17.93
2022-12-22T21:21:48.236Z,16.75
2022-12-22T21:24:16.446Z,12.63
2022-12-22T21:26:46.958Z,17.05
2022-12-22T21:29:19.803Z,16.00
2022-12-22T21:31:47.711Z,15.65
2022-12-22T21:34:15.772Z,17.10
2022-12-22T21:36:49.731Z,14.35
2022-12-22T21:39:26.348Z,13.77
2022-12-22T21:42:04.418Z,15.55
2022-12-22T21:44:35.814Z,13.23
2022-12-22T21:47:04.538Z,10.88
2022-12-22T21:49:34.094Z,10.38
2022-12-22T21:52:03.616Z,9.93
2022-12-22T21:54:31.535Z,9.90
2022-12-22T21:56:59.520Z,9.43
2022-12-22T21:59:27.617Z,9.95
2022-12-22T22:01:56.409Z,10.15
2022-12-22T22:04:25.163Z,10.70
2022-12-22T22:06:53.087Z,11.10
2022-12-22T22:09:22.387Z,11.45
2022-12-22T22:12:07.731Z,11.00
2022-12-22T22:14:35.735Z,11.57
2022-12-22T22:17:03.708Z,11.05
2022-12-22T22:19:31.687Z,12.32
2022-12-22T22:21:59.676Z,12.13
2022-12-22T22:24:30.844Z,13.60
2022-12-22T22:26:58.812Z,11.95
2022-12-22T22:29:26.734Z,13.68
2022-12-22T22:31:55.876Z,12.80
2022-12-22T22:34:23.772Z,13.13
2022-12-22T22:36:52.635Z,12.02
2022-12-22T22:39:20.568Z,11.95
2022-12-22T22:41:50.267Z,11.70
2022-12-22T22:44:18.256Z,11.60
2022-12-22T22:46:46.264Z,11.82
2022-12-22T22:49:14.241Z,11.30
2022-12-22T22:51:42.269Z,12.40
2022-12-22T22:54:11.180Z,11.43
2022-12-22T22:56:39.325Z,10.32
2022-12-22T22:59:08.659Z,11.85
2022-12-22T23:01:36.739Z,10.57
2022-12-22T23:04:04.961Z,9.93
2022-12-22T23:06:33.277Z,8.90
2022-12-22T23:09:02.134Z,9.57
2022-12-22T23:11:30.122Z,9.13
2022-12-22T23:13:59.152Z,9.70
2022-12-22T23:16:32.404Z,9.60
2022-12-22T23:19:05.536Z,10.18
2022-12-22T23:21:33.682Z,13.00
2022-12-22T23:24:02.897Z,9.05
2022-12-22T23:26:31.478Z,8.37
2022-12-22T23:29:03.303Z,10.55
2022-12-22T23:31:33.959Z,12.40
2022-12-22T23:34:03.916Z,9.98
2022-12-22T23:36:32.497Z,9.88
2022-12-22T23:39:01.380Z,10.27
2022-12-22T23:41:29.361Z,12.25
2022-12-22T23:43:57.517Z,8.65
2022-12-22T23:46:25.617Z,12.30
2022-12-22T23:48:56.424Z,9.07
2022-12-22T23:51:26.624Z,9.95
2022-12-22T23:53:54.929Z,9.27
2022-12-22T23:56:23.072Z,10.25
2022-12-22T23:58:54.853Z,11.52
